This is the latest recevied weather packets stored in our database for station/object E20ZNR-1. If no packets are shown the sender has not sent any weather packets the latest 10 day(s).
| Time | Temp. | Humidity | Pressure | Rain* | Wind** | Luminosity | Snow |
|---|---|---|---|---|---|---|---|
| 1777445140 | 43.33° C | 35% | 1002 hPa | - | - | 0 W/m² | - |
| 1777444215 | 42.22° C | 37% | 1002 hPa | - | - | 0 W/m² | - |
| 1777443290 | 43.33° C | 36% | 1003 hPa | - | - | 0 W/m² | - |
| 1777442365 | 43.33° C | 36% | 1003 hPa | - | - | 0 W/m² | - |
| 1777441440 | 43.33° C | 37% | 1004 hPa | - | - | 0 W/m² | - |
| 1777440515 | 43.33° C | 38% | 1004 hPa | - | - | 0 W/m² | - |
| 1777439590 | 42.78° C | 39% | 1004 hPa | - | - | 0 W/m² | - |
| 1777438666 | 42.22° C | 39% | 1005 hPa | - | - | 0 W/m² | - |
| 1777437741 | 42.78° C | 40% | 1005 hPa | - | - | 0 W/m² | - |
| 1777436816 | 42.22° C | 40% | 1005 hPa | - | - | 0 W/m² | - |
| 1777435891 | 42.22° C | 41% | 1005 hPa | - | - | 0 W/m² | - |
| 1777434965 | 41.67° C | 41% | 1005 hPa | - | - | 0 W/m² | - |
| 1777434040 | 42.22° C | 42% | 1006 hPa | - | - | 0 W/m² | - |
| 1777433116 | 40° C | 46% | 1006 hPa | - | - | 0 W/m² | - |
| 1777432190 | 40° C | 46% | 1006 hPa | - | - | 0 W/m² | - |
| 1777431265 | 38.33° C | 48% | 1006 hPa | - | - | 0 W/m² | - |
| 1777430340 | 39.44° C | 49% | 1006 hPa | - | - | 0 W/m² | - |
| 1777429415 | 40.56° C | 47% | 1006 hPa | - | - | 0 W/m² | - |
| 1777428489 | 40.56° C | 46% | 1006 hPa | - | - | 0 W/m² | - |
| 1777427564 | 45° C | 37% | 1006 hPa | - | - | 0 W/m² | - |
| 1777426639 | 48.33° C | 32% | 1006 hPa | - | - | 0 W/m² | - |
| 1777425714 | 47.22° C | 36% | 1006 hPa | - | - | 0 W/m² | - |
| 1777424790 | 44.44° C | 49% | 1006 hPa | - | - | 0 W/m² | - |
| 1777423864 | 32.22° C | 82% | 1006 hPa | - | - | 0 W/m² | - |
| 1777422938 | 30.56° C | 90% | 1006 hPa | - | - | 0 W/m² | - |
* Rain since midnight (hover to see other rain measurements)
** Current wind speed in m/s (hover to see current wind gust speed)